sensor_id;sensor_type;location;lat;lon;timestamp;temperature;humidity
18894;DHT22;9579;49.488;8.226;2022-11-15T06:44:00;12.50;99.90
18894;DHT22;9579;49.488;8.226;2022-11-15T06:47:12;12.50;99.90
18894;DHT22;9579;49.488;8.226;2022-11-15T07:00:52;12.20;99.90
18894;DHT22;9579;49.488;8.226;2022-11-15T07:30:30;12.40;99.90
18894;DHT22;9579;49.488;8.226;2022-11-15T07:36:54;12.50;99.90
18894;DHT22;9579;49.488;8.226;2022-11-15T07:51:38;12.60;99.90
18894;DHT22;9579;49.488;8.226;2022-11-15T08:20:18;12.80;99.90
18894;DHT22;9579;49.488;8.226;2022-11-15T08:23:06;12.90;99.90
18894;DHT22;9579;49.488;8.226;2022-11-15T08:25:59;12.90;99.90
18894;DHT22;9579;49.488;8.226;2022-11-15T08:28:46;13.00;99.90
18894;DHT22;9579;49.488;8.226;2022-11-15T08:31:33;13.00;99.90
18894;DHT22;9579;49.488;8.226;2022-11-15T08:34:20;13.10;99.90
18894;DHT22;9579;49.488;8.226;2022-11-15T08:37:08;13.20;99.90
18894;DHT22;9579;49.488;8.226;2022-11-15T08:39:55;13.30;99.90
18894;DHT22;9579;49.488;8.226;2022-11-15T08:42:42;13.30;99.90
18894;DHT22;9579;49.488;8.226;2022-11-15T08:45:34;13.30;99.90
18894;DHT22;9579;49.488;8.226;2022-11-15T08:48:21;13.30;99.90
18894;DHT22;9579;49.488;8.226;2022-11-15T08:51:09;13.40;99.90
18894;DHT22;9579;49.488;8.226;2022-11-15T08:53:57;13.40;99.90
18894;DHT22;9579;49.488;8.226;2022-11-15T08:56:44;13.30;99.90
18894;DHT22;9579;49.488;8.226;2022-11-15T08:59:31;13.20;99.90
18894;DHT22;9579;49.488;8.226;2022-11-15T09:02:18;13.20;99.90
18894;DHT22;9579;49.488;8.226;2022-11-15T09:05:07;13.10;99.90
18894;DHT22;9579;49.488;8.226;2022-11-15T09:08:02;13.00;99.90
18894;DHT22;9579;49.488;8.226;2022-11-15T09:10:51;13.00;99.90
18894;DHT22;9579;49.488;8.226;2022-11-15T09:13:38;13.10;99.90
18894;DHT22;9579;49.488;8.226;2022-11-15T09:16:25;13.20;99.90
18894;DHT22;9579;49.488;8.226;2022-11-15T09:19:12;13.20;99.90
18894;DHT22;9579;49.488;8.226;2022-11-15T09:22:00;13.30;99.90
18894;DHT22;9579;49.488;8.226;2022-11-15T09:24:47;13.20;99.90
18894;DHT22;9579;49.488;8.226;2022-11-15T09:27:35;13.40;99.90
18894;DHT22;9579;49.488;8.226;2022-11-15T09:30:23;13.40;99.90
18894;DHT22;9579;49.488;8.226;2022-11-15T09:33:11;13.40;99.90
18894;DHT22;9579;49.488;8.226;2022-11-15T09:36:02;13.30;99.90
18894;DHT22;9579;49.488;8.226;2022-11-15T09:38:49;13.50;99.90
18894;DHT22;9579;49.488;8.226;2022-11-15T09:42:07;13.40;99.90
18894;DHT22;9579;49.488;8.226;2022-11-15T09:45:09;13.60;99.90
18894;DHT22;9579;49.488;8.226;2022-11-15T09:48:16;13.60;99.90
18894;DHT22;9579;49.488;8.226;2022-11-15T09:51:12;13.60;99.90
18894;DHT22;9579;49.488;8.226;2022-11-15T09:54:05;13.50;99.90
18894;DHT22;9579;49.488;8.226;2022-11-15T09:57:06;13.50;99.90
18894;DHT22;9579;49.488;8.226;2022-11-15T10:00:04;13.50;99.90
18894;DHT22;9579;49.488;8.226;2022-11-15T10:03:09;13.50;99.90
18894;DHT22;9579;49.488;8.226;2022-11-15T10:06:00;13.50;99.90
18894;DHT22;9579;49.488;8.226;2022-11-15T10:08:54;13.40;99.90
18894;DHT22;9579;49.488;8.226;2022-11-15T10:11:42;13.40;99.90
18894;DHT22;9579;49.488;8.226;2022-11-15T10:14:30;13.40;99.90
18894;DHT22;9579;49.488;8.226;2022-11-15T10:17:31;13.40;99.90
18894;DHT22;9579;49.488;8.226;2022-11-15T10:20:23;13.40;99.90
18894;DHT22;9579;49.488;8.226;2022-11-15T10:23:13;13.40;99.90
18894;DHT22;9579;49.488;8.226;2022-11-15T10:26:01;13.50;99.90
18894;DHT22;9579;49.488;8.226;2022-11-15T10:28:53;13.50;99.90
18894;DHT22;9579;49.488;8.226;2022-11-15T10:31:41;13.60;99.90
18894;DHT22;9579;49.488;8.226;2022-11-15T10:34:35;13.60;99.90
18894;DHT22;9579;49.488;8.226;2022-11-15T10:37:28;13.50;99.90
18894;DHT22;9579;49.488;8.226;2022-11-15T10:40:18;13.50;99.90
18894;DHT22;9579;49.488;8.226;2022-11-15T10:43:14;13.50;99.90
18894;DHT22;9579;49.488;8.226;2022-11-15T10:46:18;13.50;99.90
18894;DHT22;9579;49.488;8.226;2022-11-15T10:49:13;13.50;99.90
18894;DHT22;9579;49.488;8.226;2022-11-15T10:52:04;13.20;99.90
18894;DHT22;9579;49.488;8.226;2022-11-15T10:55:02;13.40;99.90
18894;DHT22;9579;49.488;8.226;2022-11-15T10:57:52;13.50;99.90
18894;DHT22;9579;49.488;8.226;2022-11-15T11:00:39;13.60;99.90
18894;DHT22;9579;49.488;8.226;2022-11-15T11:03:29;13.70;99.90
18894;DHT22;9579;49.488;8.226;2022-11-15T11:06:17;13.60;99.90
18894;DHT22;9579;49.488;8.226;2022-11-15T11:09:23;13.70;99.90
18894;DHT22;9579;49.488;8.226;2022-11-15T11:12:11;13.90;99.90
18894;DHT22;9579;49.488;8.226;2022-11-15T11:15:00;14.00;99.90
18894;DHT22;9579;49.488;8.226;2022-11-15T11:17:57;14.20;99.90
18894;DHT22;9579;49.488;8.226;2022-11-15T11:20:51;14.30;99.90
18894;DHT22;9579;49.488;8.226;2022-11-15T11:23:49;14.50;99.90
18894;DHT22;9579;49.488;8.226;2022-11-15T11:26:44;14.40;99.90
18894;DHT22;9579;49.488;8.226;2022-11-15T11:29:42;14.30;99.90
18894;DHT22;9579;49.488;8.226;2022-11-15T11:32:49;14.40;99.90
18894;DHT22;9579;49.488;8.226;2022-11-15T11:38:57;14.60;99.90
18894;DHT22;9579;49.488;8.226;2022-11-15T11:42:00;14.70;99.90
18894;DHT22;9579;49.488;8.226;2022-11-15T11:44:56;14.80;99.90
18894;DHT22;9579;49.488;8.226;2022-11-15T11:47:47;14.80;99.90
18894;DHT22;9579;49.488;8.226;2022-11-15T11:50:37;14.80;99.90
18894;DHT22;9579;49.488;8.226;2022-11-15T11:53:28;14.70;99.90
18894;DHT22;9579;49.488;8.226;2022-11-15T11:56:24;14.70;99.90
18894;DHT22;9579;49.488;8.226;2022-11-15T11:59:22;14.60;99.90
18894;DHT22;9579;49.488;8.226;2022-11-15T12:02:16;14.70;99.90
18894;DHT22;9579;49.488;8.226;2022-11-15T12:05:14;14.70;99.90
18894;DHT22;9579;49.488;8.226;2022-11-15T12:08:09;14.90;99.90
18894;DHT22;9579;49.488;8.226;2022-11-15T12:11:09;15.00;99.90
18894;DHT22;9579;49.488;8.226;2022-11-15T12:14:02;15.20;99.90
18894;DHT22;9579;49.488;8.226;2022-11-15T12:16:51;15.20;99.90
18894;DHT22;9579;49.488;8.226;2022-11-15T12:19:39;15.10;99.90
18894;DHT22;9579;49.488;8.226;2022-11-15T12:22:36;15.30;99.90
18894;DHT22;9579;49.488;8.226;2022-11-15T12:25:29;15.50;99.90
18894;DHT22;9579;49.488;8.226;2022-11-15T12:28:20;15.50;99.90
18894;DHT22;9579;49.488;8.226;2022-11-15T12:31:15;15.60;99.90
18894;DHT22;9579;49.488;8.226;2022-11-15T12:34:15;15.50;99.90
18894;DHT22;9579;49.488;8.226;2022-11-15T12:37:49;15.40;99.90
18894;DHT22;9579;49.488;8.226;2022-11-15T12:41:14;15.40;99.90
18894;DHT22;9579;49.488;8.226;2022-11-15T12:44:03;15.50;99.90
18894;DHT22;9579;49.488;8.226;2022-11-15T12:47:24;15.40;99.90
18894;DHT22;9579;49.488;8.226;2022-11-15T12:50:14;15.30;99.90
18894;DHT22;9579;49.488;8.226;2022-11-15T12:53:26;15.30;99.90
18894;DHT22;9579;49.488;8.226;2022-11-15T12:56:23;15.20;99.90
18894;DHT22;9579;49.488;8.226;2022-11-15T12:59:10;15.10;99.90
18894;DHT22;9579;49.488;8.226;2022-11-15T13:02:18;15.00;99.90
18894;DHT22;9579;49.488;8.226;2022-11-15T13:08:47;15.30;99.90
18894;DHT22;9579;49.488;8.226;2022-11-15T13:11:51;15.20;99.90
18894;DHT22;9579;49.488;8.226;2022-11-15T13:14:41;15.30;99.90
18894;DHT22;9579;49.488;8.226;2022-11-15T13:17:34;15.20;99.90
18894;DHT22;9579;49.488;8.226;2022-11-15T13:20:25;15.20;99.90
18894;DHT22;9579;49.488;8.226;2022-11-15T13:23:15;15.20;99.90
18894;DHT22;9579;49.488;8.226;2022-11-15T13:26:10;15.20;99.90
18894;DHT22;9579;49.488;8.226;2022-11-15T13:28:57;15.30;99.90
18894;DHT22;9579;49.488;8.226;2022-11-15T13:31:46;15.00;99.90
18894;DHT22;9579;49.488;8.226;2022-11-15T13:34:34;15.10;99.90
18894;DHT22;9579;49.488;8.226;2022-11-15T13:37:29;15.20;99.90
18894;DHT22;9579;49.488;8.226;2022-11-15T13:40:24;15.10;99.90
18894;DHT22;9579;49.488;8.226;2022-11-15T13:43:23;15.00;99.90
18894;DHT22;9579;49.488;8.226;2022-11-15T13:46:17;15.00;99.90
18894;DHT22;9579;49.488;8.226;2022-11-15T13:49:07;15.00;99.90
18894;DHT22;9579;49.488;8.226;2022-11-15T13:51:56;14.90;99.90
18894;DHT22;9579;49.488;8.226;2022-11-15T13:54:46;14.70;99.90
18894;DHT22;9579;49.488;8.226;2022-11-15T13:57:38;14.70;99.90
18894;DHT22;9579;49.488;8.226;2022-11-15T14:00:36;14.80;99.90
18894;DHT22;9579;49.488;8.226;2022-11-15T14:03:26;14.70;99.90
18894;DHT22;9579;49.488;8.226;2022-11-15T14:06:15;14.70;99.90
18894;DHT22;9579;49.488;8.226;2022-11-15T14:09:24;14.80;99.90
18894;DHT22;9579;49.488;8.226;2022-11-15T14:12:27;14.70;99.90
18894;DHT22;9579;49.488;8.226;2022-11-15T14:15:26;14.60;99.90
18894;DHT22;9579;49.488;8.226;2022-11-15T14:18:43;14.50;99.90
18894;DHT22;9579;49.488;8.226;2022-11-15T14:21:30;14.40;99.90
18894;DHT22;9579;49.488;8.226;2022-11-15T14:24:19;14.50;99.90
18894;DHT22;9579;49.488;8.226;2022-11-15T14:27:21;14.40;99.90
18894;DHT22;9579;49.488;8.226;2022-11-15T14:30:14;14.60;99.90
18894;DHT22;9579;49.488;8.226;2022-11-15T14:33:11;14.40;99.90
18894;DHT22;9579;49.488;8.226;2022-11-15T14:36:11;14.30;99.90
18894;DHT22;9579;49.488;8.226;2022-11-15T14:38:58;14.50;99.90
18894;DHT22;9579;49.488;8.226;2022-11-15T14:41:46;14.60;99.90
18894;DHT22;9579;49.488;8.226;2022-11-15T14:44:34;14.70;99.90
18894;DHT22;9579;49.488;8.226;2022-11-15T14:47:21;14.70;99.90
18894;DHT22;9579;49.488;8.226;2022-11-15T14:50:12;14.60;99.90
18894;DHT22;9579;49.488;8.226;2022-11-15T14:53:01;14.60;99.90
18894;DHT22;9579;49.488;8.226;2022-11-15T14:55:48;14.60;99.90
18894;DHT22;9579;49.488;8.226;2022-11-15T14:58:38;14.70;99.90
18894;DHT22;9579;49.488;8.226;2022-11-15T15:01:26;14.60;99.90
18894;DHT22;9579;49.488;8.226;2022-11-15T15:04:13;14.70;99.90
18894;DHT22;9579;49.488;8.226;2022-11-15T15:07:02;14.70;99.90
18894;DHT22;9579;49.488;8.226;2022-11-15T15:09:52;14.70;99.90
18894;DHT22;9579;49.488;8.226;2022-11-15T15:12:39;14.80;99.90
18894;DHT22;9579;49.488;8.226;2022-11-15T15:15:30;14.80;99.90
18894;DHT22;9579;49.488;8.226;2022-11-15T15:18:18;14.80;99.90
18894;DHT22;9579;49.488;8.226;2022-11-15T15:21:17;14.80;99.90
18894;DHT22;9579;49.488;8.226;2022-11-15T15:24:05;14.80;99.90
18894;DHT22;9579;49.488;8.226;2022-11-15T15:26:57;14.90;99.90
18894;DHT22;9579;49.488;8.226;2022-11-15T15:29:44;14.90;99.90
18894;DHT22;9579;49.488;8.226;2022-11-15T15:32:31;14.80;99.90
18894;DHT22;9579;49.488;8.226;2022-11-15T15:35:18;14.80;99.90
18894;DHT22;9579;49.488;8.226;2022-11-15T15:38:09;14.80;99.90
18894;DHT22;9579;49.488;8.226;2022-11-15T15:40:57;14.90;99.90
18894;DHT22;9579;49.488;8.226;2022-11-15T15:43:46;14.90;99.90
18894;DHT22;9579;49.488;8.226;2022-11-15T15:46:39;14.90;99.90
18894;DHT22;9579;49.488;8.226;2022-11-15T15:49:27;14.80;99.90
18894;DHT22;9579;49.488;8.226;2022-11-15T15:52:14;14.80;99.90
18894;DHT22;9579;49.488;8.226;2022-11-15T15:55:01;14.80;99.90
18894;DHT22;9579;49.488;8.226;2022-11-15T15:57:50;14.70;99.90
18894;DHT22;9579;49.488;8.226;2022-11-15T16:00:39;14.70;99.90
18894;DHT22;9579;49.488;8.226;2022-11-15T16:03:28;14.70;99.90
18894;DHT22;9579;49.488;8.226;2022-11-15T16:06:37;14.60;99.90
18894;DHT22;9579;49.488;8.226;2022-11-15T16:09:24;14.50;99.90
18894;DHT22;9579;49.488;8.226;2022-11-15T16:12:26;14.50;99.90
18894;DHT22;9579;49.488;8.226;2022-11-15T16:15:14;14.50;99.90
18894;DHT22;9579;49.488;8.226;2022-11-15T16:18:06;14.40;99.90
18894;DHT22;9579;49.488;8.226;2022-11-15T16:20:54;14.40;99.90
18894;DHT22;9579;49.488;8.226;2022-11-15T16:23:42;14.40;99.90
18894;DHT22;9579;49.488;8.226;2022-11-15T16:26:35;14.30;99.90
18894;DHT22;9579;49.488;8.226;2022-11-15T16:29:22;14.40;99.90
18894;DHT22;9579;49.488;8.226;2022-11-15T16:32:10;14.30;99.90
18894;DHT22;9579;49.488;8.226;2022-11-15T16:34:58;14.30;99.90
18894;DHT22;9579;49.488;8.226;2022-11-15T16:37:45;14.30;99.90
18894;DHT22;9579;49.488;8.226;2022-11-15T16:40:34;14.30;99.90
18894;DHT22;9579;49.488;8.226;2022-11-15T16:43:29;14.30;99.90
18894;DHT22;9579;49.488;8.226;2022-11-15T16:46:18;14.40;99.90
18894;DHT22;9579;49.488;8.226;2022-11-15T16:49:10;14.40;99.90
18894;DHT22;9579;49.488;8.226;2022-11-15T16:52:00;14.40;99.90
18894;DHT22;9579;49.488;8.226;2022-11-15T16:54:47;14.40;99.90
18894;DHT22;9579;49.488;8.226;2022-11-15T16:57:36;14.40;99.90
18894;DHT22;9579;49.488;8.226;2022-11-15T17:00:24;14.40;99.90
18894;DHT22;9579;49.488;8.226;2022-11-15T17:03:29;14.40;99.90
18894;DHT22;9579;49.488;8.226;2022-11-15T17:06:19;14.40;99.90
18894;DHT22;9579;49.488;8.226;2022-11-15T17:09:10;14.40;99.90
18894;DHT22;9579;49.488;8.226;2022-11-15T17:11:58;14.30;99.90
18894;DHT22;9579;49.488;8.226;2022-11-15T17:14:45;14.30;99.90
18894;DHT22;9579;49.488;8.226;2022-11-15T17:17:33;14.30;99.90
18894;DHT22;9579;49.488;8.226;2022-11-15T17:20:21;14.30;99.90
18894;DHT22;9579;49.488;8.226;2022-11-15T17:23:12;14.40;99.90
18894;DHT22;9579;49.488;8.226;2022-11-15T17:26:04;14.30;99.90
18894;DHT22;9579;49.488;8.226;2022-11-15T17:28:54;14.20;99.90
18894;DHT22;9579;49.488;8.226;2022-11-15T17:31:41;14.20;99.90
18894;DHT22;9579;49.488;8.226;2022-11-15T17:34:29;14.30;99.90
18894;DHT22;9579;49.488;8.226;2022-11-15T17:37:21;14.40;99.90
18894;DHT22;9579;49.488;8.226;2022-11-15T17:40:09;14.30;99.90
18894;DHT22;9579;49.488;8.226;2022-11-15T17:42:58;14.20;99.90
18894;DHT22;9579;49.488;8.226;2022-11-15T17:45:45;14.20;99.90
18894;DHT22;9579;49.488;8.226;2022-11-15T17:48:35;14.20;99.90
18894;DHT22;9579;49.488;8.226;2022-11-15T17:51:22;14.20;99.90
18894;DHT22;9579;49.488;8.226;2022-11-15T17:54:16;14.20;99.90
18894;DHT22;9579;49.488;8.226;2022-11-15T17:57:03;14.20;99.90
18894;DHT22;9579;49.488;8.226;2022-11-15T17:59:52;14.20;99.90
18894;DHT22;9579;49.488;8.226;2022-11-15T18:02:39;14.10;99.90
18894;DHT22;9579;49.488;8.226;2022-11-15T18:05:26;14.10;99.90
18894;DHT22;9579;49.488;8.226;2022-11-15T18:08:13;14.10;99.90
18894;DHT22;9579;49.488;8.226;2022-11-15T18:11:04;14.10;99.90
18894;DHT22;9579;49.488;8.226;2022-11-15T18:13:55;14.10;99.90
18894;DHT22;9579;49.488;8.226;2022-11-15T18:16:44;14.10;99.90
18894;DHT22;9579;49.488;8.226;2022-11-15T18:19:31;14.10;99.90
18894;DHT22;9579;49.488;8.226;2022-11-15T18:22:18;14.10;99.90
18894;DHT22;9579;49.488;8.226;2022-11-15T18:25:06;14.10;99.90
18894;DHT22;9579;49.488;8.226;2022-11-15T18:27:53;14.10;99.90
18894;DHT22;9579;49.488;8.226;2022-11-15T18:30:40;14.00;99.90
18894;DHT22;9579;49.488;8.226;2022-11-15T18:33:32;14.10;99.90
18894;DHT22;9579;49.488;8.226;2022-11-15T18:36:22;14.10;99.90
18894;DHT22;9579;49.488;8.226;2022-11-15T18:39:09;14.10;99.90
18894;DHT22;9579;49.488;8.226;2022-11-15T18:42:01;14.10;99.90
18894;DHT22;9579;49.488;8.226;2022-11-15T18:44:48;14.10;99.90
18894;DHT22;9579;49.488;8.226;2022-11-15T18:47:35;14.10;99.90
18894;DHT22;9579;49.488;8.226;2022-11-15T18:50:23;14.10;99.90
18894;DHT22;9579;49.488;8.226;2022-11-15T18:53:12;14.10;99.90
18894;DHT22;9579;49.488;8.226;2022-11-15T18:56:03;14.10;99.90
18894;DHT22;9579;49.488;8.226;2022-11-15T18:58:52;14.10;99.90
18894;DHT22;9579;49.488;8.226;2022-11-15T19:01:46;14.10;99.90
18894;DHT22;9579;49.488;8.226;2022-11-15T19:04:33;14.10;99.90
18894;DHT22;9579;49.488;8.226;2022-11-15T19:07:21;14.00;99.90
18894;DHT22;9579;49.488;8.226;2022-11-15T19:10:24;13.90;99.90
18894;DHT22;9579;49.488;8.226;2022-11-15T19:13:12;14.00;99.90
18894;DHT22;9579;49.488;8.226;2022-11-15T19:16:02;14.00;99.90
18894;DHT22;9579;49.488;8.226;2022-11-15T19:18:52;14.00;99.90
18894;DHT22;9579;49.488;8.226;2022-11-15T19:21:39;14.10;99.90
18894;DHT22;9579;49.488;8.226;2022-11-15T19:24:27;14.10;99.90
18894;DHT22;9579;49.488;8.226;2022-11-15T19:27:14;14.10;99.90
18894;DHT22;9579;49.488;8.226;2022-11-15T19:30:02;14.10;99.90
18894;DHT22;9579;49.488;8.226;2022-11-15T19:32:51;14.10;99.90
18894;DHT22;9579;49.488;8.226;2022-11-15T19:35:38;14.10;99.90
18894;DHT22;9579;49.488;8.226;2022-11-15T19:38:25;13.90;99.90
18894;DHT22;9579;49.488;8.226;2022-11-15T19:41:20;14.00;99.90
18894;DHT22;9579;49.488;8.226;2022-11-15T19:44:27;14.10;99.90
18894;DHT22;9579;49.488;8.226;2022-11-15T19:47:15;14.00;99.90
18894;DHT22;9579;49.488;8.226;2022-11-15T19:50:02;14.00;99.90
18894;DHT22;9579;49.488;8.226;2022-11-15T19:52:58;14.00;99.90
18894;DHT22;9579;49.488;8.226;2022-11-15T19:55:52;14.00;99.90
18894;DHT22;9579;49.488;8.226;2022-11-15T19:59:02;14.00;99.90
18894;DHT22;9579;49.488;8.226;2022-11-15T20:02:03;13.90;99.90
18894;DHT22;9579;49.488;8.226;2022-11-15T20:04:50;13.90;99.90
18894;DHT22;9579;49.488;8.226;2022-11-15T20:07:39;13.90;99.90
18894;DHT22;9579;49.488;8.226;2022-11-15T20:10:29;14.00;99.90
18894;DHT22;9579;49.488;8.226;2022-11-15T20:13:19;14.00;99.90
18894;DHT22;9579;49.488;8.226;2022-11-15T20:16:08;13.90;99.90
18894;DHT22;9579;49.488;8.226;2022-11-15T20:19:00;13.90;99.90
18894;DHT22;9579;49.488;8.226;2022-11-15T20:22:03;13.90;99.90
18894;DHT22;9579;49.488;8.226;2022-11-15T20:24:50;13.90;99.90
18894;DHT22;9579;49.488;8.226;2022-11-15T20:27:44;13.80;99.90
18894;DHT22;9579;49.488;8.226;2022-11-15T20:30:31;13.80;99.90
18894;DHT22;9579;49.488;8.226;2022-11-15T20:33:20;13.90;99.90
18894;DHT22;9579;49.488;8.226;2022-11-15T20:36:10;13.90;99.90
18894;DHT22;9579;49.488;8.226;2022-11-15T20:38:57;13.90;99.90
18894;DHT22;9579;49.488;8.226;2022-11-15T20:41:45;13.90;99.90
18894;DHT22;9579;49.488;8.226;2022-11-15T20:44:32;14.00;99.90
18894;DHT22;9579;49.488;8.226;2022-11-15T20:47:19;14.00;99.90
18894;DHT22;9579;49.488;8.226;2022-11-15T20:50:08;13.90;99.90
18894;DHT22;9579;49.488;8.226;2022-11-15T20:52:55;13.90;99.90
18894;DHT22;9579;49.488;8.226;2022-11-15T20:55:45;13.80;99.90
18894;DHT22;9579;49.488;8.226;2022-11-15T20:58:33;13.80;99.90
18894;DHT22;9579;49.488;8.226;2022-11-15T21:01:21;13.80;99.90
18894;DHT22;9579;49.488;8.226;2022-11-15T21:04:09;13.70;99.90
18894;DHT22;9579;49.488;8.226;2022-11-15T21:06:57;13.70;99.90
18894;DHT22;9579;49.488;8.226;2022-11-15T21:09:44;13.70;99.90
18894;DHT22;9579;49.488;8.226;2022-11-15T21:13:05;13.70;99.90
18894;DHT22;9579;49.488;8.226;2022-11-15T21:15:54;13.60;99.90
18894;DHT22;9579;49.488;8.226;2022-11-15T21:18:42;13.70;99.90
18894;DHT22;9579;49.488;8.226;2022-11-15T21:21:29;13.60;99.90
18894;DHT22;9579;49.488;8.226;2022-11-15T21:24:17;13.60;99.90
18894;DHT22;9579;49.488;8.226;2022-11-15T21:27:05;13.60;99.90
18894;DHT22;9579;49.488;8.226;2022-11-15T21:29:52;13.60;99.90
18894;DHT22;9579;49.488;8.226;2022-11-15T21:32:39;13.60;99.90
18894;DHT22;9579;49.488;8.226;2022-11-15T21:35:27;13.60;99.90
18894;DHT22;9579;49.488;8.226;2022-11-15T21:38:14;13.60;99.90
18894;DHT22;9579;49.488;8.226;2022-11-15T21:41:03;13.60;99.90
18894;DHT22;9579;49.488;8.226;2022-11-15T21:43:50;13.60;99.90
18894;DHT22;9579;49.488;8.226;2022-11-15T21:46:37;13.60;99.90
18894;DHT22;9579;49.488;8.226;2022-11-15T21:49:24;13.50;99.90
18894;DHT22;9579;49.488;8.226;2022-11-15T21:52:14;13.60;99.90
18894;DHT22;9579;49.488;8.226;2022-11-15T21:55:01;13.50;99.90
18894;DHT22;9579;49.488;8.226;2022-11-15T21:57:50;13.60;99.90
18894;DHT22;9579;49.488;8.226;2022-11-15T22:00:49;13.50;99.90
18894;DHT22;9579;49.488;8.226;2022-11-15T22:03:54;13.50;99.90
18894;DHT22;9579;49.488;8.226;2022-11-15T22:06:41;13.60;99.90
18894;DHT22;9579;49.488;8.226;2022-11-15T22:09:28;13.40;99.90
18894;DHT22;9579;49.488;8.226;2022-11-15T22:12:16;13.50;99.90
18894;DHT22;9579;49.488;8.226;2022-11-15T22:15:05;13.50;99.90
18894;DHT22;9579;49.488;8.226;2022-11-15T22:17:53;13.40;99.90
18894;DHT22;9579;49.488;8.226;2022-11-15T22:20:56;13.50;99.90
18894;DHT22;9579;49.488;8.226;2022-11-15T22:23:44;13.50;99.90
18894;DHT22;9579;49.488;8.226;2022-11-15T22:26:31;13.50;99.90
18894;DHT22;9579;49.488;8.226;2022-11-15T22:29:19;13.50;99.90
18894;DHT22;9579;49.488;8.226;2022-11-15T22:32:07;13.50;99.90
18894;DHT22;9579;49.488;8.226;2022-11-15T22:34:54;13.50;99.90
18894;DHT22;9579;49.488;8.226;2022-11-15T22:37:42;13.60;99.90
18894;DHT22;9579;49.488;8.226;2022-11-15T22:40:29;13.40;99.90
18894;DHT22;9579;49.488;8.226;2022-11-15T22:43:21;13.30;99.90
18894;DHT22;9579;49.488;8.226;2022-11-15T22:46:09;13.40;99.90
18894;DHT22;9579;49.488;8.226;2022-11-15T22:48:57;13.40;99.90
18894;DHT22;9579;49.488;8.226;2022-11-15T22:51:44;13.40;99.90
18894;DHT22;9579;49.488;8.226;2022-11-15T22:54:31;13.40;99.90
18894;DHT22;9579;49.488;8.226;2022-11-15T22:57:19;13.30;99.90
18894;DHT22;9579;49.488;8.226;2022-11-15T23:00:09;13.30;99.90
18894;DHT22;9579;49.488;8.226;2022-11-15T23:02:57;13.20;99.90
18894;DHT22;9579;49.488;8.226;2022-11-15T23:05:45;13.20;99.90
18894;DHT22;9579;49.488;8.226;2022-11-15T23:08:34;13.10;99.90
18894;DHT22;9579;49.488;8.226;2022-11-15T23:11:21;13.20;99.90
18894;DHT22;9579;49.488;8.226;2022-11-15T23:14:25;13.20;99.90
18894;DHT22;9579;49.488;8.226;2022-11-15T23:17:13;13.20;99.90
18894;DHT22;9579;49.488;8.226;2022-11-15T23:20:00;13.20;99.90
18894;DHT22;9579;49.488;8.226;2022-11-15T23:22:49;13.10;99.90
18894;DHT22;9579;49.488;8.226;2022-11-15T23:25:35;13.10;99.90
18894;DHT22;9579;49.488;8.226;2022-11-15T23:28:23;13.10;99.90
